sensor_id;sensor_type;location;lat;lon;timestamp;pressure;altitude;pressure_sealevel;temperature;humidity
65534;BME280;53640;55.838;37.184;2023-09-12T00:00:04;99494.66;;;12.36;52.18
65534;BME280;53640;55.838;37.184;2023-09-12T00:02:39;99515.44;;;12.49;51.84
65534;BME280;53640;55.838;37.184;2023-09-12T00:05:06;99509.25;;;12.42;51.76
65534;BME280;53640;55.838;37.184;2023-09-12T00:07:32;99502.59;;;12.38;52.05
65534;BME280;53640;55.838;37.184;2023-09-12T00:09:59;99477.78;;;12.16;51.85
65534;BME280;53640;55.838;37.184;2023-09-12T00:12:25;99492.56;;;12.20;51.69
65534;BME280;53640;55.838;37.184;2023-09-12T00:14:51;99511.50;;;12.27;52.02
65534;BME280;53640;55.838;37.184;2023-09-12T00:17:21;99513.22;;;12.21;52.08
65534;BME280;53640;55.838;37.184;2023-09-12T00:19:48;99521.97;;;12.23;51.97
65534;BME280;53640;55.838;37.184;2023-09-12T00:22:14;99490.41;;;12.04;52.15
65534;BME280;53640;55.838;37.184;2023-09-12T00:24:40;99527.16;;;12.24;52.22
65534;BME280;53640;55.838;37.184;2023-09-12T00:27:07;99530.72;;;12.25;52.07
65534;BME280;53640;55.838;37.184;2023-09-12T00:29:33;99518.66;;;12.21;52.09
65534;BME280;53640;55.838;37.184;2023-09-12T00:32:01;99533.41;;;12.25;51.93
65534;BME280;53640;55.838;37.184;2023-09-12T00:34:28;99525.72;;;12.22;52.08
65534;BME280;53640;55.838;37.184;2023-09-12T00:36:55;99512.75;;;12.06;52.13
65534;BME280;53640;55.838;37.184;2023-09-12T00:39:21;99534.69;;;12.22;52.27
65534;BME280;53640;55.838;37.184;2023-09-12T00:41:47;99513.81;;;12.05;51.99
65534;BME280;53640;55.838;37.184;2023-09-12T00:44:14;99510.47;;;12.03;52.33
65534;BME280;53640;55.838;37.184;2023-09-12T00:46:40;99526.75;;;12.03;52.28
65534;BME280;53640;55.838;37.184;2023-09-12T00:49:09;99511.19;;;11.91;51.99
65534;BME280;53640;55.838;37.184;2023-09-12T00:51:36;99539.25;;;12.04;52.07
65534;BME280;53640;55.838;37.184;2023-09-12T00:54:04;99510.00;;;11.87;52.27
65534;BME280;53640;55.838;37.184;2023-09-12T00:56:32;99532.31;;;11.89;52.30
65534;BME280;53640;55.838;37.184;2023-09-12T00:58:58;99507.00;;;11.70;52.41
65534;BME280;53640;55.838;37.184;2023-09-12T01:01:25;99515.31;;;11.75;52.49
65534;BME280;53640;55.838;37.184;2023-09-12T01:03:52;99545.06;;;11.89;52.65
65534;BME280;53640;55.838;37.184;2023-09-12T01:06:19;99541.31;;;11.83;52.44
65534;BME280;53640;55.838;37.184;2023-09-12T01:08:49;99543.25;;;11.76;52.71
65534;BME280;53640;55.838;37.184;2023-09-12T01:11:16;99527.09;;;11.63;52.59
65534;BME280;53640;55.838;37.184;2023-09-12T01:13:43;99546.22;;;11.68;52.72
65534;BME280;53640;55.838;37.184;2023-09-12T01:16:09;99549.16;;;11.66;52.89
65534;BME280;53640;55.838;37.184;2023-09-12T01:18:36;99539.22;;;11.54;53.02
65534;BME280;53640;55.838;37.184;2023-09-12T01:29:21;99541.75;;;11.55;52.90
65534;BME280;53640;55.838;37.184;2023-09-12T01:31:49;99510.16;;;11.36;52.77
65534;BME280;53640;55.838;37.184;2023-09-12T01:34:17;99555.50;;;11.54;53.03
65534;BME280;53640;55.838;37.184;2023-09-12T01:36:43;99521.22;;;11.34;52.76
65534;BME280;53640;55.838;37.184;2023-09-12T01:39:11;99554.03;;;11.51;53.04
65534;BME280;53640;55.838;37.184;2023-09-12T01:41:40;99522.09;;;11.28;52.69
65534;BME280;53640;55.838;37.184;2023-09-12T01:44:09;99557.41;;;11.46;52.70
65534;BME280;53640;55.838;37.184;2023-09-12T01:46:37;99532.75;;;11.30;52.84
65534;BME280;53640;55.838;37.184;2023-09-12T01:49:04;99561.19;;;11.45;52.99
65534;BME280;53640;55.838;37.184;2023-09-12T01:51:33;99567.25;;;11.47;52.80
65534;BME280;53640;55.838;37.184;2023-09-12T01:54:00;99552.50;;;11.37;52.96
65534;BME280;53640;55.838;37.184;2023-09-12T01:56:28;99561.63;;;11.42;52.64
65534;BME280;53640;55.838;37.184;2023-09-12T01:58:55;99537.97;;;11.24;52.84
65534;BME280;53640;55.838;37.184;2023-09-12T02:01:21;99534.84;;;11.21;52.78
65534;BME280;53640;55.838;37.184;2023-09-12T02:03:47;99534.84;;;11.21;52.78
65534;BME280;53640;55.838;37.184;2023-09-12T02:06:15;99568.13;;;11.35;52.59
65534;BME280;53640;55.838;37.184;2023-09-12T02:08:41;99575.84;;;11.38;52.87
65534;BME280;53640;55.838;37.184;2023-09-12T02:11:08;99576.06;;;11.36;52.69
65534;BME280;53640;55.838;37.184;2023-09-12T02:13:35;99569.84;;;11.29;52.79
65534;BME280;53640;55.838;37.184;2023-09-12T02:16:01;99578.56;;;11.31;52.54
65534;BME280;53640;55.838;37.184;2023-09-12T02:18:30;99557.41;;;11.15;52.72
65534;BME280;53640;55.838;37.184;2023-09-12T02:20:58;99550.38;;;11.07;52.69
65534;BME280;53640;55.838;37.184;2023-09-12T02:23:25;99592.56;;;11.28;52.75
65534;BME280;53640;55.838;37.184;2023-09-12T02:25:51;99553.75;;;11.02;52.71
65534;BME280;53640;55.838;37.184;2023-09-12T02:28:17;99584.91;;;11.18;52.93
65534;BME280;53640;55.838;37.184;2023-09-12T02:30:43;99573.69;;;11.08;52.71
65534;BME280;53640;55.838;37.184;2023-09-12T02:33:10;99591.38;;;11.17;53.00
65534;BME280;53640;55.838;37.184;2023-09-12T02:35:39;99561.09;;;10.89;53.00
65534;BME280;53640;55.838;37.184;2023-09-12T02:38:06;99577.06;;;11.03;52.87
65534;BME280;53640;55.838;37.184;2023-09-12T02:40:33;99588.69;;;11.11;52.61
65534;BME280;53640;55.838;37.184;2023-09-12T02:43:00;99586.25;;;11.02;52.83
65534;BME280;53640;55.838;37.184;2023-09-12T02:45:26;99581.69;;;10.96;52.95
65534;BME280;53640;55.838;37.184;2023-09-12T02:47:53;99590.22;;;10.93;53.26
65534;BME280;53640;55.838;37.184;2023-09-12T02:50:20;99594.19;;;10.91;53.47
65534;BME280;53640;55.838;37.184;2023-09-12T02:52:46;99574.72;;;10.69;53.97
65534;BME280;53640;55.838;37.184;2023-09-12T02:55:12;99598.84;;;10.77;53.83
65534;BME280;53640;55.838;37.184;2023-09-12T02:57:39;99597.19;;;10.69;53.89
65534;BME280;53640;55.838;37.184;2023-09-12T03:00:06;99594.88;;;10.60;54.22
65534;BME280;53640;55.838;37.184;2023-09-12T03:02:35;99547.09;;;10.27;54.56
65534;BME280;53640;55.838;37.184;2023-09-12T03:05:02;99550.00;;;10.25;54.48
65534;BME280;53640;55.838;37.184;2023-09-12T03:07:30;99563.53;;;10.25;55.02
65534;BME280;53640;55.838;37.184;2023-09-12T03:09:57;99589.72;;;10.38;54.86
65534;BME280;53640;55.838;37.184;2023-09-12T03:12:23;99573.94;;;10.22;55.40
65534;BME280;53640;55.838;37.184;2023-09-12T03:14:49;99562.50;;;10.06;55.44
65534;BME280;53640;55.838;37.184;2023-09-12T03:17:16;99570.63;;;10.06;55.68
65534;BME280;53640;55.838;37.184;2023-09-12T03:19:42;99539.84;;;9.81;55.71
65534;BME280;53640;55.838;37.184;2023-09-12T03:22:08;99602.44;;;10.18;55.77
65534;BME280;53640;55.838;37.184;2023-09-12T03:24:36;99610.16;;;10.21;55.73
65534;BME280;53640;55.838;37.184;2023-09-12T03:27:02;99567.09;;;9.99;55.60
65534;BME280;53640;55.838;37.184;2023-09-12T03:29:29;99607.88;;;10.24;55.46
65534;BME280;53640;55.838;37.184;2023-09-12T03:31:55;99567.72;;;10.01;55.55
65534;BME280;53640;55.838;37.184;2023-09-12T03:34:22;99608.69;;;10.25;55.59
65534;BME280;53640;55.838;37.184;2023-09-12T03:36:48;99597.88;;;10.18;55.82
65534;BME280;53640;55.838;37.184;2023-09-12T03:39:14;99565.44;;;9.98;55.92
65534;BME280;53640;55.838;37.184;2023-09-12T03:41:41;99595.56;;;10.15;55.66
65534;BME280;53640;55.838;37.184;2023-09-12T03:44:07;99575.19;;;9.99;55.89
65534;BME280;53640;55.838;37.184;2023-09-12T03:46:34;99616.63;;;10.20;55.97
65534;BME280;53640;55.838;37.184;2023-09-12T03:49:02;99603.28;;;10.12;55.97
65534;BME280;53640;55.838;37.184;2023-09-12T03:51:29;99602.66;;;10.16;55.74
65534;BME280;53640;55.838;37.184;2023-09-12T03:53:55;99607.03;;;10.17;56.21
65534;BME280;53640;55.838;37.184;2023-09-12T03:56:22;99615.16;;;10.24;55.97
65534;BME280;53640;55.838;37.184;2023-09-12T03:58:48;99595.56;;;10.15;56.05
65534;BME280;53640;55.838;37.184;2023-09-12T04:01:14;99616.81;;;10.32;56.08
65534;BME280;53640;55.838;37.184;2023-09-12T04:03:44;99588.28;;;10.22;55.70
65534;BME280;53640;55.838;37.184;2023-09-12T04:06:13;99620.53;;;10.50;55.72
65534;BME280;53640;55.838;37.184;2023-09-12T04:08:40;99616.13;;;10.49;55.82
65534;BME280;53640;55.838;37.184;2023-09-12T04:11:08;99616.34;;;10.54;55.95
65534;BME280;53640;55.838;37.184;2023-09-12T04:13:35;99588.69;;;10.39;55.51
65534;BME280;53640;55.838;37.184;2023-09-12T04:16:01;99598.06;;;10.50;55.58
65534;BME280;53640;55.838;37.184;2023-09-12T04:18:27;99573.28;;;10.33;55.46
65534;BME280;53640;55.838;37.184;2023-09-12T04:20:53;99598.66;;;10.59;55.50
65534;BME280;53640;55.838;37.184;2023-09-12T04:23:24;99618.84;;;10.76;55.43
65534;BME280;53640;55.838;37.184;2023-09-12T04:25:51;99627.13;;;10.88;55.53
65534;BME280;53640;55.838;37.184;2023-09-12T04:28:17;99630.25;;;10.91;55.13
65534;BME280;53640;55.838;37.184;2023-09-12T04:30:44;99622.13;;;10.91;55.20
65534;BME280;53640;55.838;37.184;2023-09-12T04:33:12;99576.13;;;10.71;55.26
65534;BME280;53640;55.838;37.184;2023-09-12T04:35:38;99618.75;;;11.02;55.01
65534;BME280;53640;55.838;37.184;2023-09-12T04:38:05;99618.75;;;11.02;55.21
65534;BME280;53640;55.838;37.184;2023-09-12T04:40:32;99604.56;;;11.00;54.95
65534;BME280;53640;55.838;37.184;2023-09-12T04:42:58;99621.63;;;11.08;55.16
65534;BME280;53640;55.838;37.184;2023-09-12T04:45:26;99651.56;;;11.33;55.08
65534;BME280;53640;55.838;37.184;2023-09-12T04:47:53;99648.19;;;11.37;54.73
65534;BME280;53640;55.838;37.184;2023-09-12T04:50:20;99613.22;;;11.22;54.94
65534;BME280;53640;55.838;37.184;2023-09-12T04:52:47;99624.22;;;11.34;54.79
65534;BME280;53640;55.838;37.184;2023-09-12T04:55:14;99648.09;;;11.50;54.50
65534;BME280;53640;55.838;37.184;2023-09-12T04:57:41;99656.59;;;11.61;54.68
65534;BME280;53640;55.838;37.184;2023-09-12T05:00:08;99659.47;;;11.66;54.75
65534;BME280;53640;55.838;37.184;2023-09-12T05:02:38;99652.59;;;11.70;54.64
65534;BME280;53640;55.838;37.184;2023-09-12T05:05:04;99645.06;;;11.72;54.68
65534;BME280;53640;55.838;37.184;2023-09-12T05:07:31;99624.22;;;11.66;54.48
65534;BME280;53640;55.838;37.184;2023-09-12T05:09:58;99611.97;;;11.63;54.45
65534;BME280;53640;55.838;37.184;2023-09-12T05:12:25;99658.75;;;11.90;54.40
65534;BME280;53640;55.838;37.184;2023-09-12T05:14:52;99637.47;;;11.87;54.30
65534;BME280;53640;55.838;37.184;2023-09-12T05:17:20;99661.34;;;12.04;53.98
65534;BME280;53640;55.838;37.184;2023-09-12T05:19:47;99656.94;;;12.09;54.17
65534;BME280;53640;55.838;37.184;2023-09-12T05:22:14;99655.44;;;12.13;53.82
65534;BME280;53640;55.838;37.184;2023-09-12T05:24:40;99621.31;;;11.99;53.95
65534;BME280;53640;55.838;37.184;2023-09-12T05:27:07;99632.53;;;12.09;53.56
65534;BME280;53640;55.838;37.184;2023-09-12T05:29:33;99651.72;;;12.33;53.63
65534;BME280;53640;55.838;37.184;2023-09-12T05:31:59;99634.91;;;12.24;53.31
65534;BME280;53640;55.838;37.184;2023-09-12T05:34:27;99655.16;;;12.46;53.13
65534;BME280;53640;55.838;37.184;2023-09-12T05:36:53;99646.34;;;12.51;52.89
65534;BME280;53640;55.838;37.184;2023-09-12T05:39:20;99660.78;;;12.70;52.65
65534;BME280;53640;55.838;37.184;2023-09-12T05:41:47;99618.91;;;12.59;53.12
65534;BME280;53640;55.838;37.184;2023-09-12T05:44:14;99666.13;;;13.02;52.11
65534;BME280;53640;55.838;37.184;2023-09-12T05:46:47;99648.00;;;13.14;51.61
65534;BME280;53640;55.838;37.184;2023-09-12T05:49:15;99638.03;;;13.26;51.46
65534;BME280;53640;55.838;37.184;2023-09-12T05:51:46;99662.44;;;13.63;51.16
65534;BME280;53640;55.838;37.184;2023-09-12T05:54:16;99659.69;;;13.81;51.01
65534;BME280;53640;55.838;37.184;2023-09-12T05:56:44;99664.00;;;14.01;50.24
65534;BME280;53640;55.838;37.184;2023-09-12T05:59:11;99667.38;;;14.26;50.07
65534;BME280;53640;55.838;37.184;2023-09-12T06:01:37;99642.88;;;14.26;49.48
65534;BME280;53640;55.838;37.184;2023-09-12T06:04:05;99632.69;;;14.33;49.42
65534;BME280;53640;55.838;37.184;2023-09-12T06:06:33;99645.25;;;14.58;48.37
65534;BME280;53640;55.838;37.184;2023-09-12T06:09:03;99666.34;;;14.86;48.11
65534;BME280;53640;55.838;37.184;2023-09-12T06:11:29;99620.25;;;14.73;48.05
65534;BME280;53640;55.838;37.184;2023-09-12T06:13:58;99671.28;;;15.12;47.54
65534;BME280;53640;55.838;37.184;2023-09-12T06:16:25;99610.63;;;14.82;47.69
65534;BME280;53640;55.838;37.184;2023-09-12T06:18:52;99658.59;;;15.18;47.37
65534;BME280;53640;55.838;37.184;2023-09-12T06:21:21;99674.69;;;15.31;47.30
65534;BME280;53640;55.838;37.184;2023-09-12T06:23:48;99649.66;;;15.23;46.78
65534;BME280;53640;55.838;37.184;2023-09-12T06:26:14;99645.56;;;15.20;46.98
65534;BME280;53640;55.838;37.184;2023-09-12T06:28:40;99675.00;;;15.47;47.26
65534;BME280;53640;55.838;37.184;2023-09-12T06:31:10;99681.00;;;15.60;46.73
65534;BME280;53640;55.838;37.184;2023-09-12T06:33:38;99677.78;;;15.64;46.30
65534;BME280;53640;55.838;37.184;2023-09-12T06:36:05;99606.84;;;15.23;45.55
65534;BME280;53640;55.838;37.184;2023-09-12T06:38:31;99684.00;;;15.88;45.88
65534;BME280;53640;55.838;37.184;2023-09-12T06:40:58;99663.81;;;15.89;45.66
65534;BME280;53640;55.838;37.184;2023-09-12T06:43:24;99675.06;;;16.09;44.88
65534;BME280;53640;55.838;37.184;2023-09-12T06:45:51;99665.56;;;16.12;44.83
65534;BME280;53640;55.838;37.184;2023-09-12T06:48:17;99685.72;;;16.39;44.42
65534;BME280;53640;55.838;37.184;2023-09-12T06:50:43;99691.09;;;16.51;43.91
65534;BME280;53640;55.838;37.184;2023-09-12T06:53:10;99685.81;;;16.61;43.76
65534;BME280;53640;55.838;37.184;2023-09-12T06:55:37;99682.75;;;16.74;44.15
65534;BME280;53640;55.838;37.184;2023-09-12T06:58:03;99650.34;;;16.66;43.77
65534;BME280;53640;55.838;37.184;2023-09-12T07:00:31;99676.56;;;17.01;43.10
65534;BME280;53640;55.838;37.184;2023-09-12T07:02:58;99690.34;;;17.28;43.05
65534;BME280;53640;55.838;37.184;2023-09-12T07:05:24;99690.59;;;17.48;42.73
65534;BME280;53640;55.838;37.184;2023-09-12T07:07:51;99679.50;;;17.60;42.65
65534;BME280;53640;55.838;37.184;2023-09-12T07:10:18;99693.09;;;17.77;41.81
65534;BME280;53640;55.838;37.184;2023-09-12T07:16:31;99573.25;;;17.08;41.41
65534;BME280;53640;55.838;37.184;2023-09-12T07:18:58;99616.16;;;17.51;41.65
65534;BME280;53640;55.838;37.184;2023-09-12T07:21:25;99643.97;;;17.65;41.16
65534;BME280;53640;55.838;37.184;2023-09-12T07:23:51;99631.94;;;17.66;41.13
65534;BME280;53640;55.838;37.184;2023-09-12T07:26:19;99691.06;;;18.16;40.73
65534;BME280;53640;55.838;37.184;2023-09-12T07:28:45;99675.09;;;18.08;40.48
65534;BME280;53640;55.838;37.184;2023-09-12T07:31:11;99709.38;;;18.43;40.54
65534;BME280;53640;55.838;37.184;2023-09-12T07:33:40;99696.53;;;18.48;39.90
65534;BME280;53640;55.838;37.184;2023-09-12T07:36:07;99664.97;;;18.41;39.50
65534;BME280;53640;55.838;37.184;2023-09-12T07:38:33;99691.50;;;18.67;39.83
65534;BME280;53640;55.838;37.184;2023-09-12T07:41:01;99702.59;;;18.88;39.10
65534;BME280;53640;55.838;37.184;2023-09-12T07:43:29;99707.66;;;19.01;38.93
65534;BME280;53640;55.838;37.184;2023-09-12T07:45:57;99705.75;;;19.07;38.39
65534;BME280;53640;55.838;37.184;2023-09-12T07:48:23;99672.47;;;18.93;38.23
65534;BME280;53640;55.838;37.184;2023-09-12T07:50:50;99692.28;;;19.00;38.27
65534;BME280;53640;55.838;37.184;2023-09-12T07:53:18;99687.25;;;18.87;38.45
65534;BME280;53640;55.838;37.184;2023-09-12T07:55:44;99691.72;;;18.98;38.28
65534;BME280;53640;55.838;37.184;2023-09-12T07:58:16;99710.47;;;19.16;38.10
65534;BME280;53640;55.838;37.184;2023-09-12T08:00:45;99701.47;;;19.26;38.10
65534;BME280;53640;55.838;37.184;2023-09-12T08:03:13;99694.06;;;19.32;37.78
65534;BME280;53640;55.838;37.184;2023-09-12T08:05:39;99691.41;;;19.42;37.55
65534;BME280;53640;55.838;37.184;2023-09-12T08:08:06;99675.75;;;19.42;37.12
65534;BME280;53640;55.838;37.184;2023-09-12T08:10:32;99693.16;;;19.68;37.56
65534;BME280;53640;55.838;37.184;2023-09-12T08:12:58;99676.13;;;19.82;37.13
65534;BME280;53640;55.838;37.184;2023-09-12T08:15:25;99703.97;;;20.11;36.77
65534;BME280;53640;55.838;37.184;2023-09-12T08:17:51;99675.91;;;19.99;35.97
65534;BME280;53640;55.838;37.184;2023-09-12T08:20:20;99698.50;;;20.26;36.19
65534;BME280;53640;55.838;37.184;2023-09-12T08:22:47;99683.66;;;20.32;35.56
65534;BME280;53640;55.838;37.184;2023-09-12T08:25:15;99663.59;;;20.37;35.77
65534;BME280;53640;55.838;37.184;2023-09-12T08:27:43;99685.00;;;20.76;34.71
65534;BME280;53640;55.838;37.184;2023-09-12T08:30:11;99676.78;;;20.81;34.04
65534;BME280;53640;55.838;37.184;2023-09-12T08:32:39;99641.78;;;20.76;34.03
65534;BME280;53640;55.838;37.184;2023-09-12T08:35:13;99658.03;;;20.93;33.67
65534;BME280;53640;55.838;37.184;2023-09-12T08:37:40;99692.59;;;21.25;33.93
65534;BME280;53640;55.838;37.184;2023-09-12T08:40:08;99646.91;;;21.24;33.30
65534;BME280;53640;55.838;37.184;2023-09-12T08:42:42;99660.22;;;21.66;32.95
65534;BME280;53640;55.838;37.184;2023-09-12T08:45:17;99660.03;;;21.97;32.58
65534;BME280;53640;55.838;37.184;2023-09-12T08:47:48;99681.97;;;22.51;32.27
65534;BME280;53640;55.838;37.184;2023-09-12T08:50:15;99645.84;;;22.48;31.69
65534;BME280;53640;55.838;37.184;2023-09-12T08:52:47;99685.50;;;22.91;30.98
65534;BME280;53640;55.838;37.184;2023-09-12T08:55:14;99673.38;;;23.11;30.73
65534;BME280;53640;55.838;37.184;2023-09-12T08:57:42;99606.53;;;22.90;30.04
65534;BME280;53640;55.838;37.184;2023-09-12T09:00:09;99675.44;;;23.48;29.93
65534;BME280;53640;55.838;37.184;2023-09-12T09:02:40;99686.38;;;23.59;29.59
65534;BME280;53640;55.838;37.184;2023-09-12T09:05:07;99680.56;;;23.79;29.71
65534;BME280;53640;55.838;37.184;2023-09-12T09:07:41;99634.16;;;23.76;28.46
65534;BME280;53640;55.838;37.184;2023-09-12T09:10:21;99605.84;;;23.65;28.49
65534;BME280;53640;55.838;37.184;2023-09-12T09:12:48;99644.63;;;23.98;28.20
65534;BME280;53640;55.838;37.184;2023-09-12T09:15:22;99638.34;;;24.11;27.83
65534;BME280;53640;55.838;37.184;2023-09-12T09:17:51;99638.50;;;24.01;27.61
65534;BME280;53640;55.838;37.184;2023-09-12T09:20:47;99656.72;;;24.21;27.09
65534;BME280;53640;55.838;37.184;2023-09-12T09:23:17;99660.25;;;24.40;27.16
65534;BME280;53640;55.838;37.184;2023-09-12T09:25:51;99670.91;;;24.66;26.88
65534;BME280;53640;55.838;37.184;2023-09-12T09:28:20;99670.13;;;24.93;26.26
65534;BME280;53640;55.838;37.184;2023-09-12T09:30:50;99664.66;;;25.20;26.33
65534;BME280;53640;55.838;37.184;2023-09-12T09:33:21;99681.03;;;25.58;25.85
65534;BME280;53640;55.838;37.184;2023-09-12T09:35:48;99654.41;;;25.71;25.63
65534;BME280;53640;55.838;37.184;2023-09-12T09:38:18;99665.81;;;26.06;24.99
65534;BME280;53640;55.838;37.184;2023-09-12T09:40:45;99664.34;;;26.22;25.22
65534;BME280;53640;55.838;37.184;2023-09-12T09:43:11;99656.81;;;26.23;24.94
65534;BME280;53640;55.838;37.184;2023-09-12T09:45:44;99654.38;;;26.43;24.89
65534;BME280;53640;55.838;37.184;2023-09-12T09:48:21;99661.19;;;26.60;24.62
65534;BME280;53640;55.838;37.184;2023-09-12T09:50:48;99662.78;;;26.83;23.93
65534;BME280;53640;55.838;37.184;2023-09-12T09:53:15;99631.41;;;26.83;23.64
65534;BME280;53640;55.838;37.184;2023-09-12T09:55:41;99663.72;;;27.10;22.88
65534;BME280;53640;55.838;37.184;2023-09-12T09:58:15;99666.72;;;27.31;23.22
65534;BME280;53640;55.838;37.184;2023-09-12T10:00:46;99657.81;;;27.43;23.10
65534;BME280;53640;55.838;37.184;2023-09-12T10:03:16;99645.31;;;27.31;22.48
65534;BME280;53640;55.838;37.184;2023-09-12T10:05:45;99649.78;;;27.41;22.37
65534;BME280;53640;55.838;37.184;2023-09-12T10:08:12;99632.66;;;27.65;22.47
65534;BME280;53640;55.838;37.184;2023-09-12T10:10:43;99632.69;;;28.00;22.14
65534;BME280;53640;55.838;37.184;2023-09-12T10:13:10;99641.16;;;28.29;22.07
65534;BME280;53640;55.838;37.184;2023-09-12T10:15:36;99630.00;;;28.47;21.54
65534;BME280;53640;55.838;37.184;2023-09-12T10:18:09;99661.84;;;28.84;21.72
65534;BME280;53640;55.838;37.184;2023-09-12T10:20:38;99651.88;;;28.83;20.73
65534;BME280;53640;55.838;37.184;2023-09-12T10:23:14;99596.09;;;28.53;21.07
65534;BME280;53640;55.838;37.184;2023-09-12T10:25:44;99628.25;;;28.80;21.30
65534;BME280;53640;55.838;37.184;2023-09-12T10:28:11;99657.53;;;29.04;20.47
65534;BME280;53640;55.838;37.184;2023-09-12T10:30:39;99658.75;;;29.24;19.85
65534;BME280;53640;55.838;37.184;2023-09-12T10:33:06;99656.59;;;29.29;19.34
65534;BME280;53640;55.838;37.184;2023-09-12T10:35:34;99658.56;;;29.59;19.74
65534;BME280;53640;55.838;37.184;2023-09-12T10:38:02;99647.09;;;29.81;19.25
65534;BME280;53640;55.838;37.184;2023-09-12T10:40:35;99648.78;;;29.94;18.98
65534;BME280;53640;55.838;37.184;2023-09-12T10:43:03;99620.53;;;29.96;19.08
65534;BME280;53640;55.838;37.184;2023-09-12T10:45:32;99632.44;;;30.05;18.37
65534;BME280;53640;55.838;37.184;2023-09-12T10:48:01;99655.47;;;30.56;18.83
65534;BME280;53640;55.838;37.184;2023-09-12T10:50:28;99621.97;;;30.68;18.12
65534;BME280;53640;55.838;37.184;2023-09-12T10:52:57;99644.63;;;31.00;17.75
65534;BME280;53640;55.838;37.184;2023-09-12T10:55:33;99653.25;;;31.19;17.39
65534;BME280;53640;55.838;37.184;2023-09-12T10:58:04;99656.97;;;31.23;17.37
65534;BME280;53640;55.838;37.184;2023-09-12T11:00:31;99646.47;;;31.33;17.58
65534;BME280;53640;55.838;37.184;2023-09-12T11:05:54;99652.56;;;31.47;17.43
65534;BME280;53640;55.838;37.184;2023-09-12T11:08:21;99636.69;;;31.51;17.64
65534;BME280;53640;55.838;37.184;2023-09-12T11:11:16;99648.44;;;31.69;17.54
65534;BME280;53640;55.838;37.184;2023-09-12T11:14:03;99601.47;;;31.38;17.22
65534;BME280;53640;55.838;37.184;2023-09-12T11:16:30;99598.44;;;31.43;17.35
65534;BME280;53640;55.838;37.184;2023-09-12T11:21:47;99629.09;;;31.64;17.12
65534;BME280;53640;55.838;37.184;2023-09-12T11:24:15;99600.75;;;31.65;16.86
65534;BME280;53640;55.838;37.184;2023-09-12T11:26:55;99634.47;;;31.97;16.89
65534;BME280;53640;55.838;37.184;2023-09-12T11:29:21;99616.91;;;32.12;15.80
65534;BME280;53640;55.838;37.184;2023-09-12T11:31:54;99615.28;;;32.11;16.23
65534;BME280;53640;55.838;37.184;2023-09-12T11:34:27;99605.25;;;32.10;15.70
65534;BME280;53640;55.838;37.184;2023-09-12T11:36:58;99607.06;;;31.90;15.72
65534;BME280;53640;55.838;37.184;2023-09-12T11:39:31;99613.25;;;31.96;15.07
65534;BME280;53640;55.838;37.184;2023-09-12T11:41:58;99633.69;;;31.84;15.72
65534;BME280;53640;55.838;37.184;2023-09-12T11:44:25;99633.09;;;31.91;16.54
65534;BME280;53640;55.838;37.184;2023-09-12T11:46:55;99628.66;;;32.02;16.35
65534;BME280;53640;55.838;37.184;2023-09-12T11:49:39;99614.94;;;32.13;15.08
65534;BME280;53640;55.838;37.184;2023-09-12T11:52:11;99618.13;;;32.27;14.73
65534;BME280;53640;55.838;37.184;2023-09-12T11:54:39;99603.44;;;32.46;15.05
65534;BME280;53640;55.838;37.184;2023-09-12T11:57:10;99625.53;;;32.63;14.60
65534;BME280;53640;55.838;37.184;2023-09-12T11:59:37;99617.03;;;32.76;14.84
65534;BME280;53640;55.838;37.184;2023-09-12T12:02:08;99614.03;;;32.68;15.08
65534;BME280;53640;55.838;37.184;2023-09-12T12:04:35;99613.41;;;32.59;14.75
65534;BME280;53640;55.838;37.184;2023-09-12T12:07:03;99628.34;;;32.63;14.88
65534;BME280;53640;55.838;37.184;2023-09-12T12:09:32;99616.69;;;32.61;14.50
65534;BME280;53640;55.838;37.184;2023-09-12T12:12:19;99616.59;;;32.74;14.55
65534;BME280;53640;55.838;37.184;2023-09-12T12:14:45;99616.13;;;32.72;14.38
65534;BME280;53640;55.838;37.184;2023-09-12T12:17:12;99613.88;;;32.77;14.72
65534;BME280;53640;55.838;37.184;2023-09-12T12:19:39;99591.34;;;32.74;14.04
65534;BME280;53640;55.838;37.184;2023-09-12T12:22:06;99616.25;;;32.91;13.56
65534;BME280;53640;55.838;37.184;2023-09-12T12:24:40;99617.88;;;32.92;13.58
65534;BME280;53640;55.838;37.184;2023-09-12T12:27:07;99608.38;;;32.97;14.03
65534;BME280;53640;55.838;37.184;2023-09-12T12:29:37;99591.34;;;32.74;13.70
65534;BME280;53640;55.838;37.184;2023-09-12T12:32:05;99584.69;;;32.34;14.50
65534;BME280;53640;55.838;37.184;2023-09-12T12:34:32;99589.84;;;32.16;14.66
65534;BME280;53640;55.838;37.184;2023-09-12T12:36:59;99585.16;;;32.21;14.66
65534;BME280;53640;55.838;37.184;2023-09-12T12:39:26;99577.09;;;32.35;14.19
65534;BME280;53640;55.838;37.184;2023-09-12T12:41:54;99603.81;;;32.60;14.76
65534;BME280;53640;55.838;37.184;2023-09-12T12:44:21;99583.66;;;32.55;14.30
65534;BME280;53640;55.838;37.184;2023-09-12T12:46:53;99609.72;;;32.71;14.05
65534;BME280;53640;55.838;37.184;2023-09-12T12:49:21;99603.47;;;32.78;14.40
65534;BME280;53640;55.838;37.184;2023-09-12T12:51:49;99605.19;;;32.82;14.56
65534;BME280;53640;55.838;37.184;2023-09-12T12:54:16;99587.28;;;32.71;14.16
65534;BME280;53640;55.838;37.184;2023-09-12T12:56:43;99608.72;;;32.95;14.52
65534;BME280;53640;55.838;37.184;2023-09-12T12:59:11;99603.59;;;32.97;14.28
65534;BME280;53640;55.838;37.184;2023-09-12T13:01:38;99608.53;;;33.20;14.58
65534;BME280;53640;55.838;37.184;2023-09-12T13:04:06;99608.69;;;33.27;15.11
65534;BME280;53640;55.838;37.184;2023-09-12T13:06:34;99602.34;;;33.30;14.43
65534;BME280;53640;55.838;37.184;2023-09-12T13:09:05;99600.28;;;33.27;14.12
65534;BME280;53640;55.838;37.184;2023-09-12T13:11:32;99601.47;;;33.26;13.89